Time;durP1;ratioP1;P1;durP2;ratioP2;P2;SDS_P1;SDS_P2;PMS_P1;PMS_P2;Temp;Humidity;BMP_temperature;BMP_pressure;BME280_temperature;BME280_humidity;BME280_pressure;Samples;Min_cycle;Max_cycle;Signal;HPM_P1;HPM_P2
2024/02/21 00:02:21;;;;;;;;;14.33;14.33;;;;;;;;5079222;27;45547;-80
2024/02/21 00:04:46;;;;;;;;;16.67;15.33;;;;;;;;5077636;28;45411;-80
2024/02/21 00:07:12;;;;;;;;;16.00;16.00;;;;;;;;5079230;28;45567;-79
2024/02/21 00:09:37;;;;;;;;;18.67;14.33;;;;;;;;5079429;27;45368;-80
2024/02/21 00:12:03;;;;;;;;;15.00;14.00;;;;;;;;5067250;27;45388;-79
2024/02/21 00:14:28;;;;;;;;;17.67;15.33;;;;;;;;5057851;28;45382;-79
2024/02/21 00:16:53;;;;;;;;;16.67;15.00;;;;;;;;5059067;28;45599;-79
2024/02/21 00:19:18;;;;;;;;;17.67;16.00;;;;;;;;5058550;28;45993;-80
2024/02/21 00:21:43;;;;;;;;;16.33;16.00;;;;;;;;5059200;28;45233;-80
2024/02/21 00:24:08;;;;;;;;;18.33;18.00;;;;;;;;5059280;28;45596;-80
2024/02/21 00:26:34;;;;;;;;;17.33;17.33;;;;;;;;5058879;28;45557;-80
2024/02/21 00:28:59;;;;;;;;;14.00;12.67;;;;;;;;5057502;28;48216;-79
2024/02/21 00:31:24;;;;;;;;;17.00;14.33;;;;;;;;5057730;28;45429;-80
2024/02/21 00:33:50;;;;;;;;;15.33;15.33;;;;;;;;5057513;28;45463;-79
2024/02/21 00:36:15;;;;;;;;;18.33;17.67;;;;;;;;5058785;28;45548;-79
2024/02/21 00:38:40;;;;;;;;;16.67;14.67;;;;;;;;5058760;28;46343;-80
2024/02/21 00:41:05;;;;;;;;;14.67;14.33;;;;;;;;5057516;28;45381;-79
2024/02/21 00:43:31;;;;;;;;;14.33;14.33;;;;;;;;5057742;28;45266;-80
2024/02/21 00:45:56;;;;;;;;;15.67;14.33;;;;;;;;5057275;28;46117;-80
2024/02/21 00:48:22;;;;;;;;;17.33;17.00;;;;;;;;5056861;28;47347;-79
2024/02/21 00:50:47;;;;;;;;;18.33;16.00;;;;;;;;5058637;28;45219;-80
2024/02/21 00:53:12;;;;;;;;;19.00;16.33;;;;;;;;5062106;28;45373;-80
2024/02/21 00:55:37;;;;;;;;;13.33;13.00;;;;;;;;5060612;28;46467;-80
2024/02/21 00:58:03;;;;;;;;;18.00;15.33;;;;;;;;5074031;28;48286;-79
2024/02/21 01:00:28;;;;;;;;;15.67;14.00;;;;;;;;5082300;28;45221;-80
2024/02/21 01:02:53;;;;;;;;;17.33;15.33;;;;;;;;5082199;27;45229;-80
2024/02/21 01:05:19;;;;;;;;;17.00;16.00;;;;;;;;5082055;27;45428;-79
2024/02/21 01:07:45;;;;;;;;;20.00;19.00;;;;;;;;5082140;28;46212;-79
2024/02/21 01:10:10;;;;;;;;;12.00;11.67;;;;;;;;5080640;28;45913;-79
2024/02/21 01:12:35;;;;;;;;;20.33;17.00;;;;;;;;5063341;28;45297;-79
2024/02/21 01:15:01;;;;;;;;;16.00;12.00;;;;;;;;5060853;28;45596;-80
2024/02/21 01:17:26;;;;;;;;;17.33;16.00;;;;;;;;5060326;28;45465;-80
2024/02/21 01:19:51;;;;;;;;;18.00;17.33;;;;;;;;5061263;28;45327;-80
2024/02/21 01:22:17;;;;;;;;;16.00;15.00;;;;;;;;5060520;28;45366;-79
2024/02/21 01:24:42;;;;;;;;;19.67;16.67;;;;;;;;5061615;28;45295;-80
2024/02/21 01:27:08;;;;;;;;;14.67;12.67;;;;;;;;5059991;28;47291;-79
2024/02/21 01:29:33;;;;;;;;;13.33;13.33;;;;;;;;5061339;28;45362;-80
2024/02/21 01:31:58;;;;;;;;;17.33;15.33;;;;;;;;5060501;28;45360;-80
2024/02/21 01:34:23;;;;;;;;;13.67;13.67;;;;;;;;5059780;28;47106;-79
2024/02/21 01:36:48;;;;;;;;;12.00;12.00;;;;;;;;5060095;28;48118;-79
2024/02/21 01:39:14;;;;;;;;;15.33;14.67;;;;;;;;5061347;28;45210;-80
2024/02/21 01:41:39;;;;;;;;;14.33;12.00;;;;;;;;5061506;28;45378;-80
2024/02/21 01:44:04;;;;;;;;;13.00;13.00;;;;;;;;5059961;28;46080;-79
2024/02/21 01:46:30;;;;;;;;;16.33;14.33;;;;;;;;5061284;28;46515;-80
2024/02/21 01:48:56;;;;;;;;;13.67;13.00;;;;;;;;5060991;28;45274;-80
2024/02/21 01:51:21;;;;;;;;;16.00;15.00;;;;;;;;5061355;28;45273;-80
2024/02/21 01:53:47;;;;;;;;;13.67;13.67;;;;;;;;5061048;28;45221;-79
2024/02/21 01:56:12;;;;;;;;;18.00;15.00;;;;;;;;5061086;28;45311;-80
2024/02/21 01:58:38;;;;;;;;;18.67;15.00;;;;;;;;5079400;28;45260;-80
2024/02/21 02:01:04;;;;;;;;;16.67;16.00;;;;;;;;5081406;28;45330;-80
2024/02/21 02:03:29;;;;;;;;;17.33;17.33;;;;;;;;5079869;28;45248;-80
2024/02/21 02:05:55;;;;;;;;;16.33;15.67;;;;;;;;5079683;28;47050;-79
2024/02/21 02:08:22;;;;;;;;;15.00;11.33;;;;;;;;5081292;27;45346;-79
2024/02/21 02:10:47;;;;;;;;;14.33;14.00;;;;;;;;5081360;27;45297;-80
2024/02/21 02:13:12;;;;;;;;;16.00;15.00;;;;;;;;5079639;28;46571;-80
2024/02/21 02:15:44;;;;;;;;;12.00;12.00;;;;;;;;5081116;27;45550;-80
2024/02/21 02:18:10;;;;;;;;;15.00;14.33;;;;;;;;5080930;28;45447;-80
2024/02/21 02:20:35;;;;;;;;;17.33;14.33;;;;;;;;5081070;28;45287;-80
2024/02/21 02:23:05;;;;;;;;;12.00;11.67;;;;;;;;5080964;28;45441;-79
2024/02/21 02:25:30;;;;;;;;;10.00;10.00;;;;;;;;5080858;27;45234;-79
2024/02/21 02:27:55;;;;;;;;;15.33;14.67;;;;;;;;5079414;28;45266;-80
2024/02/21 02:30:21;;;;;;;;;13.67;12.67;;;;;;;;5080935;27;45429;-80
2024/02/21 02:32:46;;;;;;;;;14.00;13.67;;;;;;;;5080538;27;45238;-80
2024/02/21 02:35:11;;;;;;;;;12.33;12.00;;;;;;;;5079388;28;48253;-80
2024/02/21 02:37:38;;;;;;;;;17.67;14.67;;;;;;;;5080913;27;45140;-80
2024/02/21 02:40:04;;;;;;;;;15.67;14.00;;;;;;;;5080996;27;45305;-79
2024/02/21 02:42:29;;;;;;;;;12.67;12.67;;;;;;;;5072545;27;45439;-80
2024/02/21 02:44:54;;;;;;;;;13.67;11.67;;;;;;;;5059063;28;47304;-80
2024/02/21 02:47:19;;;;;;;;;14.67;13.33;;;;;;;;5060519;28;45176;-80
2024/02/21 02:49:45;;;;;;;;;17.00;13.33;;;;;;;;5058575;28;45861;-80
2024/02/21 02:52:10;;;;;;;;;10.33;10.33;;;;;;;;5059862;28;45248;-80
2024/02/21 02:54:35;;;;;;;;;13.67;13.67;;;;;;;;5060208;28;46316;-79
2024/02/21 02:57:00;;;;;;;;;13.00;13.00;;;;;;;;5064842;28;45333;-80
2024/02/21 02:59:25;;;;;;;;;14.00;14.00;;;;;;;;5080111;27;45501;-80
2024/02/21 03:01:50;;;;;;;;;14.00;12.00;;;;;;;;5080151;27;45346;-80
2024/02/21 03:04:16;;;;;;;;;14.67;14.33;;;;;;;;5078681;28;47247;-80
2024/02/21 03:06:41;;;;;;;;;12.67;11.33;;;;;;;;5080376;27;45232;-80
2024/02/21 03:09:08;;;;;;;;;14.67;12.00;;;;;;;;5079050;28;45484;-80
2024/02/21 03:11:33;;;;;;;;;13.00;13.00;;;;;;;;5080170;27;45436;-80
2024/02/21 03:13:58;;;;;;;;;13.67;11.00;;;;;;;;5078406;28;47346;-80
2024/02/21 03:16:25;;;;;;;;;12.33;12.33;;;;;;;;5079001;28;45579;-80
2024/02/21 03:18:50;;;;;;;;;12.33;10.67;;;;;;;;5078481;28;45280;-80
2024/02/21 03:21:15;;;;;;;;;13.00;12.00;;;;;;;;5080096;27;45226;-80
2024/02/21 03:23:41;;;;;;;;;13.67;13.00;;;;;;;;5078646;28;47153;-79
2024/02/21 03:26:06;;;;;;;;;15.67;14.33;;;;;;;;5079958;27;45304;-79
2024/02/21 03:28:32;;;;;;;;;14.00;13.33;;;;;;;;5080045;28;45248;-80
2024/02/21 03:30:57;;;;;;;;;14.33;12.33;;;;;;;;5079907;27;45351;-80
2024/02/21 03:33:23;;;;;;;;;13.33;11.00;;;;;;;;5078288;28;47148;-79
2024/02/21 03:35:48;;;;;;;;;15.67;13.00;;;;;;;;5080002;27;45263;-80
2024/02/21 03:38:13;;;;;;;;;12.00;12.00;;;;;;;;5078580;28;45295;-80
2024/02/21 03:40:38;;;;;;;;;15.33;15.00;;;;;;;;5079929;27;45393;-80
2024/02/21 03:43:04;;;;;;;;;13.33;12.00;;;;;;;;5079869;27;45492;-80
2024/02/21 03:45:29;;;;;;;;;14.67;14.00;;;;;;;;5079919;27;45195;-79
2024/02/21 03:47:54;;;;;;;;;13.00;11.33;;;;;;;;5079880;28;45717;-80
2024/02/21 03:50:20;;;;;;;;;14.67;13.00;;;;;;;;5079638;28;45247;-80
2024/02/21 03:52:45;;;;;;;;;15.00;12.67;;;;;;;;5079513;28;45471;-80
2024/02/21 03:55:10;;;;;;;;;12.67;12.67;;;;;;;;5078317;28;45369;-79
2024/02/21 03:57:35;;;;;;;;;15.00;14.50;;;;;;;;5068638;28;45383;-80
2024/02/21 04:00:01;;;;;;;;;12.33;12.33;;;;;;;;5058104;28;47315;-79
2024/02/21 04:02:26;;;;;;;;;15.33;14.00;;;;;;;;5057492;28;47185;-80
2024/02/21 04:04:51;;;;;;;;;14.00;14.00;;;;;;;;5059234;28;45361;-80
2024/02/21 04:07:16;;;;;;;;;18.00;14.33;;;;;;;;5059476;28;45600;-80
2024/02/21 04:09:41;;;;;;;;;13.00;11.67;;;;;;;;5057787;28;46765;-80
2024/02/21 04:12:08;;;;;;;;;13.67;13.67;;;;;;;;5059073;28;45512;-79
2024/02/21 04:14:34;;;;;;;;;14.33;14.00;;;;;;;;5059246;28;45462;-80
2024/02/21 04:16:59;;;;;;;;;13.33;13.33;;;;;;;;5057994;28;45382;-80
2024/02/21 04:19:25;;;;;;;;;13.00;12.67;;;;;;;;5058900;28;45252;-80
2024/02/21 04:21:50;;;;;;;;;14.33;13.00;;;;;;;;5058983;28;45263;-80
2024/02/21 04:24:15;;;;;;;;;13.33;11.67;;;;;;;;5057698;28;45182;-80
2024/02/21 04:26:40;;;;;;;;;15.00;12.67;;;;;;;;5060168;28;45517;-79
2024/02/21 04:29:05;;;;;;;;;14.00;14.00;;;;;;;;5062723;28;45359;-80
2024/02/21 04:31:32;;;;;;;;;14.00;12.33;;;;;;;;5060612;28;47133;-80
2024/02/21 04:33:57;;;;;;;;;14.33;11.00;;;;;;;;5062103;28;45211;-80
2024/02/21 04:36:22;;;;;;;;;14.00;14.00;;;;;;;;5061067;28;45357;-79
2024/02/21 04:38:47;;;;;;;;;14.67;14.00;;;;;;;;5061111;28;47230;-80
2024/02/21 04:41:12;;;;;;;;;9.00;8.67;;;;;;;;5062396;28;45394;-80
2024/02/21 04:43:37;;;;;;;;;12.33;11.00;;;;;;;;5061067;28;45343;-80
2024/02/21 04:46:04;;;;;;;;;9.67;7.00;;;;;;;;5061230;28;45338;-80
2024/02/21 04:48:29;;;;;;;;;13.00;13.00;;;;;;;;5060387;28;46635;-79
2024/02/21 04:50:54;;;;;;;;;13.00;13.00;;;;;;;;5062041;28;45953;-80
2024/02/21 04:53:20;;;;;;;;;13.00;11.67;;;;;;;;5062146;28;45488;-80
2024/02/21 04:55:46;;;;;;;;;12.00;10.33;;;;;;;;5060990;28;45285;-80
2024/02/21 04:58:11;;;;;;;;;11.00;9.33;;;;;;;;5076698;28;45334;-79
2024/02/21 05:00:36;;;;;;;;;15.67;11.00;;;;;;;;5080967;28;48350;-80
2024/02/21 05:03:01;;;;;;;;;13.00;11.00;;;;;;;;5082057;27;45435;-80
2024/02/21 05:05:26;;;;;;;;;17.33;13.67;;;;;;;;5080979;28;45494;-80
2024/02/21 05:07:51;;;;;;;;;14.00;14.00;;;;;;;;5082350;27;45407;-80
2024/02/21 05:10:17;;;;;;;;;13.67;10.33;;;;;;;;5082114;27;45475;-80
2024/02/21 05:12:42;;;;;;;;;14.67;11.33;;;;;;;;5082258;27;45241;-80
2024/02/21 05:15:08;;;;;;;;;11.33;11.00;;;;;;;;5078077;28;45386;-80
2024/02/21 05:17:33;;;;;;;;;11.33;11.33;;;;;;;;5061586;28;45564;-80
2024/02/21 05:19:58;;;;;;;;;13.33;11.33;;;;;;;;5060220;28;47168;-80
2024/02/21 05:22:23;;;;;;;;;13.67;11.67;;;;;;;;5061408;28;45346;-80
2024/02/21 05:24:48;;;;;;;;;16.00;11.67;;;;;;;;5061364;28;45453;-80
2024/02/21 05:27:13;;;;;;;;;11.00;9.33;;;;;;;;5059077;28;46284;-79
2024/02/21 05:29:39;;;;;;;;;9.00;9.00;;;;;;;;5061023;28;45512;-80
2024/02/21 05:32:04;;;;;;;;;16.67;13.00;;;;;;;;5061561;28;45287;-80
2024/02/21 05:34:29;;;;;;;;;12.00;9.00;;;;;;;;5061373;28;45339;-80
2024/02/21 05:36:54;;;;;;;;;9.67;9.67;;;;;;;;5061464;28;45363;-80
2024/02/21 05:39:23;;;;;;;;;9.00;9.00;;;;;;;;5060005;28;47382;-80
2024/02/21 05:41:49;;;;;;;;;10.67;9.00;;;;;;;;5060132;28;45261;-80
2024/02/21 05:44:15;;;;;;;;;9.33;8.67;;;;;;;;5060014;28;45434;-80
2024/02/21 05:46:40;;;;;;;;;13.67;12.67;;;;;;;;5059996;28;45621;-80
2024/02/21 05:49:06;;;;;;;;;14.00;13.33;;;;;;;;5060917;28;45424;-79
2024/02/21 05:51:35;;;;;;;;;12.00;11.33;;;;;;;;5061330;28;45379;-80
2024/02/21 05:54:00;;;;;;;;;10.67;9.00;;;;;;;;5061065;28;45287;-80
2024/02/21 05:56:26;;;;;;;;;12.33;10.67;;;;;;;;5059867;28;46282;-79
2024/02/21 05:58:51;;;;;;;;;10.33;10.33;;;;;;;;5081392;27;45144;-80
2024/02/21 06:01:17;;;;;;;;;13.33;11.00;;;;;;;;5079935;28;45869;-80
2024/02/21 06:03:43;;;;;;;;;10.33;9.00;;;;;;;;5081194;28;45274;-80
2024/02/21 06:06:08;;;;;;;;;12.33;12.33;;;;;;;;5081104;27;45214;-79
2024/02/21 06:08:33;;;;;;;;;14.00;11.33;;;;;;;;5081270;27;46666;-79
2024/02/21 06:10:58;;;;;;;;;15.67;12.67;;;;;;;;5081268;27;45366;-80
2024/02/21 06:13:23;;;;;;;;;11.33;11.00;;;;;;;;5081519;27;45238;-80
2024/02/21 06:15:50;;;;;;;;;8.00;8.00;;;;;;;;5081165;27;45520;-79
2024/02/21 06:18:15;;;;;;;;;10.67;9.67;;;;;;;;5079819;28;47970;-80
2024/02/21 06:20:40;;;;;;;;;13.00;12.33;;;;;;;;5080896;28;45442;-80
2024/02/21 06:23:06;;;;;;;;;12.00;11.33;;;;;;;;5081287;27;45369;-80
2024/02/21 06:25:31;;;;;;;;;19.00;18.00;;;;;;;;5079687;28;46011;-80
2024/02/21 06:27:56;;;;;;;;;12.00;11.33;;;;;;;;5079214;28;48671;-79
2024/02/21 06:30:21;;;;;;;;;8.67;8.67;;;;;;;;5079582;28;45487;-80
2024/02/21 06:32:46;;;;;;;;;9.00;9.00;;;;;;;;5080917;27;45562;-79
2024/02/21 06:35:12;;;;;;;;;15.67;10.67;;;;;;;;5080769;27;45474;-80
2024/02/21 06:37:38;;;;;;;;;12.33;10.67;;;;;;;;5080880;27;45407;-79
2024/02/21 06:40:03;;;;;;;;;13.67;12.00;;;;;;;;5079477;28;45327;-80
2024/02/21 06:42:29;;;;;;;;;13.00;11.33;;;;;;;;5075620;27;45490;-79
2024/02/21 06:44:56;;;;;;;;;13.33;12.00;;;;;;;;5058147;28;47074;-80
2024/02/21 06:47:21;;;;;;;;;16.67;15.00;;;;;;;;5059434;28;45445;-79
2024/02/21 06:49:52;;;;;;;;;15.33;13.33;;;;;;;;5057620;28;46330;-78
2024/02/21 06:52:20;;;;;;;;;13.33;11.67;;;;;;;;5060177;28;45422;-79
2024/02/21 06:54:45;;;;;;;;;10.33;10.33;;;;;;;;5060132;27;45469;-79
2024/02/21 06:57:10;;;;;;;;;14.00;11.33;;;;;;;;5066300;28;45337;-80
2024/02/21 06:59:35;;;;;;;;;11.33;8.00;;;;;;;;5080524;27;45206;-81
2024/02/21 07:02:00;;;;;;;;;15.33;14.00;;;;;;;;5080576;27;45446;-80
2024/02/21 07:04:26;;;;;;;;;12.67;12.00;;;;;;;;5071990;28;47568;-81
2024/02/21 07:06:52;;;;;;;;;12.00;10.00;;;;;;;;5060036;28;46372;-80
2024/02/21 07:09:17;;;;;;;;;12.00;11.67;;;;;;;;5059678;28;45337;-80
2024/02/21 07:11:42;;;;;;;;;15.00;13.67;;;;;;;;5058913;28;45256;-81
2024/02/21 07:14:07;;;;;;;;;11.67;11.00;;;;;;;;5058780;28;47042;-80
2024/02/21 07:16:32;;;;;;;;;12.00;11.00;;;;;;;;5058520;28;48460;-80
2024/02/21 07:18:58;;;;;;;;;11.00;11.00;;;;;;;;5059676;28;45383;-80
2024/02/21 07:21:23;;;;;;;;;12.33;11.00;;;;;;;;5058435;28;45256;-82
2024/02/21 07:23:48;;;;;;;;;13.33;13.00;;;;;;;;5057625;28;45358;-81
2024/02/21 07:26:13;;;;;;;;;16.00;11.67;;;;;;;;5073654;28;46324;-80
2024/02/21 07:28:38;;;;;;;;;16.67;13.67;;;;;;;;5076629;28;45531;-81
2024/02/21 07:31:04;;;;;;;;;13.67;12.33;;;;;;;;5059809;28;45346;-81
2024/02/21 07:33:30;;;;;;;;;15.33;13.67;;;;;;;;5059249;28;45331;-81
2024/02/21 07:35:55;;;;;;;;;17.67;12.33;;;;;;;;5059490;28;46564;-78
2024/02/21 07:38:20;;;;;;;;;12.00;9.00;;;;;;;;5058245;28;45424;-77
2024/02/21 07:40:46;;;;;;;;;13.33;12.33;;;;;;;;5065622;28;45509;-77
2024/02/21 07:43:11;;;;;;;;;8.00;6.67;;;;;;;;5073138;28;45315;-77
2024/02/21 07:45:36;;;;;;;;;10.00;10.00;;;;;;;;5073572;28;45395;-77
2024/02/21 07:48:02;;;;;;;;;13.67;12.33;;;;;;;;5068825;28;45352;-77
2024/02/21 07:50:27;;;;;;;;;11.67;11.67;;;;;;;;5073713;28;45399;-77
2024/02/21 07:52:52;;;;;;;;;11.33;11.33;;;;;;;;5071507;28;45553;-77
2024/02/21 07:55:17;;;;;;;;;9.00;8.33;;;;;;;;5070565;28;45357;-77
2024/02/21 07:57:43;;;;;;;;;13.00;9.33;;;;;;;;5083158;28;45353;-78
2024/02/21 08:00:10;;;;;;;;;13.00;13.00;;;;;;;;5069170;27;45358;-78
2024/02/21 08:02:35;;;;;;;;;15.33;10.67;;;;;;;;5061431;28;45347;-77
2024/02/21 08:05:00;;;;;;;;;9.67;9.67;;;;;;;;5061672;28;48294;-77
2024/02/21 08:07:28;;;;;;;;;10.33;10.33;;;;;;;;5062465;28;45177;-77
2024/02/21 08:09:54;;;;;;;;;12.00;12.00;;;;;;;;5062731;28;45466;-78
2024/02/21 08:12:19;;;;;;;;;14.33;12.33;;;;;;;;5072782;28;45670;-79
2024/02/21 08:14:44;;;;;;;;;10.33;8.33;;;;;;;;5075365;28;45487;-78
2024/02/21 08:17:09;;;;;;;;;16.67;14.00;;;;;;;;5076135;28;45705;-78
2024/02/21 08:19:34;;;;;;;;;16.33;14.00;;;;;;;;5075834;28;45309;-77
2024/02/21 08:22:00;;;;;;;;;10.00;9.33;;;;;;;;5075354;28;45592;-78
2024/02/21 08:24:25;;;;;;;;;13.67;10.00;;;;;;;;5073977;28;47647;-78
2024/02/21 08:26:50;;;;;;;;;15.00;14.67;;;;;;;;5070757;28;45292;-79
2024/02/21 08:29:15;;;;;;;;;10.00;10.00;;;;;;;;5075937;28;45427;-78
2024/02/21 08:31:40;;;;;;;;;17.33;17.33;;;;;;;;5074723;28;45404;-77
2024/02/21 08:34:06;;;;;;;;;14.33;14.33;;;;;;;;5079165;28;45372;-78
2024/02/21 08:36:32;;;;;;;;;10.00;8.67;;;;;;;;5083342;28;46046;-77
2024/02/21 08:38:57;;;;;;;;;15.00;12.00;;;;;;;;5084204;28;45394;-77
2024/02/21 08:41:23;;;;;;;;;12.00;10.00;;;;;;;;5077171;28;45287;-76
2024/02/21 08:43:49;;;;;;;;;11.00;11.00;;;;;;;;5067478;28;45544;-77
2024/02/21 08:46:14;;;;;;;;;13.33;13.00;;;;;;;;5067675;28;45394;-78
2024/02/21 08:48:39;;;;;;;;;17.67;15.67;;;;;;;;5072127;28;45340;-77
2024/02/21 08:51:05;;;;;;;;;12.00;10.67;;;;;;;;5078958;28;47334;-77
2024/02/21 08:53:30;;;;;;;;;10.67;10.67;;;;;;;;5075642;28;47333;-77
2024/02/21 08:55:55;;;;;;;;;16.33;16.00;;;;;;;;5075641;28;45136;-77
2024/02/21 08:58:23;;;;;;;;;15.67;12.67;;;;;;;;5082554;28;45461;-78
2024/02/21 09:00:48;;;;;;;;;11.00;11.00;;;;;;;;5078656;28;45566;-77
2024/02/21 09:03:13;;;;;;;;;13.33;10.67;;;;;;;;5070801;28;48564;-78
2024/02/21 09:05:38;;;;;;;;;11.33;10.67;;;;;;;;5079610;28;45324;-77
2024/02/21 09:08:04;;;;;;;;;15.67;13.00;;;;;;;;5078269;28;45310;-78
2024/02/21 09:10:30;;;;;;;;;12.67;11.00;;;;;;;;5076521;28;47088;-78
2024/02/21 09:12:55;;;;;;;;;11.00;10.67;;;;;;;;5073153;28;45204;-79
2024/02/21 09:15:21;;;;;;;;;12.33;11.33;;;;;;;;5072935;28;45460;-78
2024/02/21 09:17:46;;;;;;;;;10.33;10.00;;;;;;;;5064665;28;45315;-79
2024/02/21 09:20:11;;;;;;;;;8.67;8.67;;;;;;;;5064419;28;45264;-78
2024/02/21 09:22:37;;;;;;;;;10.33;8.67;;;;;;;;5065477;28;47327;-78
2024/02/21 09:25:03;;;;;;;;;10.33;9.33;;;;;;;;5065224;28;45710;-78
2024/02/21 09:27:28;;;;;;;;;12.00;12.00;;;;;;;;5066651;28;45310;-78
2024/02/21 09:29:54;;;;;;;;;15.00;15.00;;;;;;;;5072322;28;45579;-79
2024/02/21 09:32:21;;;;;;;;;13.00;10.67;;;;;;;;5072414;28;48050;-79
2024/02/21 09:34:47;;;;;;;;;10.33;10.00;;;;;;;;5074397;28;45161;-79
2024/02/21 09:37:12;;;;;;;;;13.33;11.00;;;;;;;;5075821;28;45283;-79
2024/02/21 09:39:37;;;;;;;;;12.67;10.00;;;;;;;;5071502;28;45241;-78
2024/02/21 09:42:06;;;;;;;;;11.00;9.67;;;;;;;;5069277;28;45223;-78
2024/02/21 09:44:37;;;;;;;;;10.00;9.00;;;;;;;;5069235;28;45323;-78
2024/02/21 09:47:04;;;;;;;;;12.00;11.33;;;;;;;;5069133;28;45326;-78
2024/02/21 09:49:31;;;;;;;;;11.33;9.33;;;;;;;;5069571;28;46322;-78
2024/02/21 09:51:57;;;;;;;;;10.00;9.00;;;;;;;;5073468;28;45524;-78
2024/02/21 09:54:22;;;;;;;;;11.33;9.67;;;;;;;;5073439;28;45544;-78
2024/02/21 09:56:47;;;;;;;;;10.67;10.00;;;;;;;;5080669;28;45215;-77
2024/02/21 09:59:16;;;;;;;;;8.33;8.33;;;;;;;;5093375;28;45939;-78
2024/02/21 10:01:46;;;;;;;;;12.00;12.00;;;;;;;;5087284;28;47356;-78
2024/02/21 10:04:12;;;;;;;;;12.33;8.00;;;;;;;;5074894;28;45670;-78
2024/02/21 10:06:38;;;;;;;;;14.33;12.00;;;;;;;;5078292;28;45307;-78
2024/02/21 10:09:03;;;;;;;;;12.33;10.67;;;;;;;;5075079;28;45394;-77
2024/02/21 10:11:29;;;;;;;;;9.00;9.00;;;;;;;;5078469;28;46320;-78
2024/02/21 10:14:05;;;;;;;;;12.33;8.33;;;;;;;;5077122;28;45313;-77
2024/02/21 10:16:30;;;;;;;;;14.00;14.00;;;;;;;;5076479;28;45262;-77
2024/02/21 10:18:55;;;;;;;;;11.33;11.33;;;;;;;;5074960;28;45367;-78
2024/02/21 10:21:20;;;;;;;;;11.33;9.67;;;;;;;;5071787;28;47223;-78
2024/02/21 10:23:46;;;;;;;;;11.00;11.00;;;;;;;;5074357;28;45248;-77
2024/02/21 10:26:12;;;;;;;;;8.00;8.00;;;;;;;;5072420;28;45286;-77
2024/02/21 10:28:41;;;;;;;;;9.00;9.00;;;;;;;;5074832;28;44664;-78
2024/02/21 10:31:07;;;;;;;;;14.00;13.00;;;;;;;;5073377;28;46240;-79
2024/02/21 10:33:32;;;;;;;;;8.67;8.67;;;;;;;;5061478;28;45896;-78
2024/02/21 10:36:06;;;;;;;;;11.33;9.67;;;;;;;;5073645;28;45366;-78
2024/02/21 10:38:31;;;;;;;;;12.00;10.00;;;;;;;;5073609;28;45517;-78
2024/02/21 10:40:58;;;;;;;;;10.33;9.00;;;;;;;;5070701;28;46013;-76
2024/02/21 10:43:25;;;;;;;;;10.00;10.00;;;;;;;;5073984;28;45661;-78
2024/02/21 10:45:51;;;;;;;;;11.00;8.00;;;;;;;;5074398;28;45319;-78
2024/02/21 10:48:25;;;;;;;;;12.33;11.00;;;;;;;;5064802;28;45430;-80
2024/02/21 10:51:00;;;;;;;;;11.00;9.67;;;;;;;;5056914;28;45522;-79
2024/02/21 10:53:46;;;;;;;;;10.67;10.67;;;;;;;;5071402;28;46089;-79
2024/02/21 10:56:23;;;;;;;;;12.33;12.33;;;;;;;;5069712;28;45282;-79
2024/02/21 10:58:49;;;;;;;;;13.00;11.00;;;;;;;;5093869;28;45564;-78
2024/02/21 11:01:15;;;;;;;;;7.00;5.67;;;;;;;;5094349;27;45556;-78
2024/02/21 11:03:41;;;;;;;;;9.00;9.00;;;;;;;;5082415;28;45309;-78
2024/02/21 11:06:08;;;;;;;;;11.00;9.67;;;;;;;;5081944;27;45377;-79
2024/02/21 11:08:33;;;;;;;;;10.67;8.33;;;;;;;;5087321;27;45417;-78
2024/02/21 11:11:00;;;;;;;;;10.67;10.67;;;;;;;;5079957;28;47005;-80
2024/02/21 11:13:51;;;;;;;;;10.67;8.67;;;;;;;;5065969;28;45802;-77
2024/02/21 11:16:23;;;;;;;;;9.00;9.00;;;;;;;;5054632;28;45453;-78
2024/02/21 11:18:48;;;;;;;;;11.33;10.67;;;;;;;;5064120;28;45480;-78
2024/02/21 11:21:13;;;;;;;;;10.00;10.00;;;;;;;;5062587;28;46197;-78
2024/02/21 11:23:39;;;;;;;;;9.67;9.67;;;;;;;;5068260;28;45211;-79
2024/02/21 11:26:07;;;;;;;;;11.33;11.33;;;;;;;;5067914;28;45137;-79
2024/02/21 11:28:33;;;;;;;;;9.00;9.00;;;;;;;;5065519;28;45395;-78
2024/02/21 11:31:13;;;;;;;;;8.00;8.00;;;;;;;;5067159;28;45319;-80
2024/02/21 11:33:39;;;;;;;;;10.33;9.67;;;;;;;;5066004;28;45275;-78
2024/02/21 11:36:04;;;;;;;;;10.00;10.00;;;;;;;;5059287;28;45693;-77
2024/02/21 11:38:30;;;;;;;;;12.33;11.00;;;;;;;;5052013;28;45499;-77
2024/02/21 11:40:55;;;;;;;;;11.00;11.00;;;;;;;;5072096;28;45181;-78
2024/02/21 11:43:20;;;;;;;;;12.33;10.67;;;;;;;;5071777;28;45400;-77
2024/02/21 11:45:45;;;;;;;;;10.33;9.00;;;;;;;;5074889;28;45251;-78
2024/02/21 11:48:10;;;;;;;;;11.67;10.33;;;;;;;;5072257;28;45553;-77
2024/02/21 11:50:36;;;;;;;;;11.67;9.67;;;;;;;;5069926;28;45406;-79
2024/02/21 11:53:02;;;;;;;;;11.00;11.00;;;;;;;;5065655;28;45357;-80
2024/02/21 11:55:28;;;;;;;;;10.00;10.00;;;;;;;;5068833;28;45484;-77
2024/02/21 11:57:53;;;;;;;;;10.33;10.00;;;;;;;;5086226;28;45298;-77
2024/02/21 12:00:21;;;;;;;;;9.67;9.67;;;;;;;;5073903;28;46020;-77
2024/02/21 12:02:47;;;;;;;;;10.67;10.67;;;;;;;;5067122;28;45697;-76
2024/02/21 12:05:12;;;;;;;;;11.67;7.00;;;;;;;;5054856;28;45418;-76
2024/02/21 12:07:41;;;;;;;;;12.33;11.33;;;;;;;;5064321;28;46090;-75
2024/02/21 12:10:12;;;;;;;;;13.67;11.67;;;;;;;;5062337;28;45401;-77
2024/02/21 12:12:38;;;;;;;;;13.67;10.67;;;;;;;;5068104;28;44713;-77
2024/02/21 12:15:07;;;;;;;;;10.67;10.67;;;;;;;;5065686;28;45379;-77
2024/02/21 12:17:33;;;;;;;;;12.00;10.33;;;;;;;;5069141;28;45240;-78
2024/02/21 12:19:58;;;;;;;;;10.00;10.00;;;;;;;;5073369;28;45505;-77
2024/02/21 12:22:25;;;;;;;;;12.00;9.33;;;;;;;;5050059;28;45403;-78
2024/02/21 12:24:50;;;;;;;;;12.00;10.67;;;;;;;;5059837;28;45387;-77
2024/02/21 12:27:15;;;;;;;;;12.00;10.33;;;;;;;;5054738;28;45485;-77
2024/02/21 12:29:41;;;;;;;;;10.67;10.33;;;;;;;;5046975;28;46396;-77
2024/02/21 12:32:06;;;;;;;;;11.00;9.00;;;;;;;;5051573;28;45335;-78
2024/02/21 12:34:36;;;;;;;;;12.67;12.00;;;;;;;;5061948;28;45437;-77
2024/02/21 12:37:01;;;;;;;;;9.33;9.33;;;;;;;;5054344;28;45489;-78
2024/02/21 12:39:28;;;;;;;;;9.67;9.33;;;;;;;;5062647;28;45344;-78
2024/02/21 12:41:54;;;;;;;;;11.00;10.00;;;;;;;;5061291;28;45347;-78
2024/02/21 12:44:19;;;;;;;;;10.00;8.33;;;;;;;;5067635;28;45271;-75
2024/02/21 12:46:44;;;;;;;;;11.33;11.00;;;;;;;;5071065;28;44745;-76
2024/02/21 12:49:10;;;;;;;;;6.67;5.67;;;;;;;;5080149;28;45021;-77
2024/02/21 12:51:35;;;;;;;;;11.00;11.00;;;;;;;;5076467;28;45303;-77
2024/02/21 12:54:02;;;;;;;;;9.33;8.33;;;;;;;;5076104;28;45214;-75
2024/02/21 12:56:28;;;;;;;;;9.67;9.67;;;;;;;;5075234;28;46276;-75
2024/02/21 12:58:53;;;;;;;;;14.33;13.00;;;;;;;;5078820;28;45900;-77
2024/02/21 13:01:18;;;;;;;;;9.33;9.33;;;;;;;;5078735;28;44645;-77
2024/02/21 13:03:44;;;;;;;;;7.67;7.67;;;;;;;;5066175;28;45315;-77
2024/02/21 13:06:10;;;;;;;;;8.67;8.67;;;;;;;;5064172;28;45465;-75
2024/02/21 13:08:36;;;;;;;;;11.00;10.00;;;;;;;;5078647;28;44985;-76
2024/02/21 13:11:01;;;;;;;;;9.33;9.00;;;;;;;;5079117;28;44815;-76
2024/02/21 13:13:26;;;;;;;;;13.00;11.67;;;;;;;;5074374;28;45245;-75
2024/02/21 13:15:51;;;;;;;;;8.67;8.00;;;;;;;;5060801;28;45097;-75
2024/02/21 13:18:17;;;;;;;;;8.00;7.00;;;;;;;;5077385;28;45885;-75
2024/02/21 13:20:42;;;;;;;;;7.33;7.00;;;;;;;;5080147;28;44670;-75
2024/02/21 13:23:07;;;;;;;;;10.00;9.00;;;;;;;;5078429;28;45313;-77
2024/02/21 13:25:32;;;;;;;;;10.67;8.67;;;;;;;;5070594;28;45287;-78
2024/02/21 13:27:57;;;;;;;;;10.00;10.00;;;;;;;;5062424;28;46532;-77
2024/02/21 13:30:22;;;;;;;;;10.33;10.33;;;;;;;;5061032;28;45351;-77
2024/02/21 13:32:48;;;;;;;;;8.67;8.33;;;;;;;;5043580;28;45444;-77
2024/02/21 13:35:14;;;;;;;;;10.33;10.33;;;;;;;;5056680;28;46425;-79
2024/02/21 13:37:39;;;;;;;;;7.33;7.00;;;;;;;;5070581;28;45403;-79
2024/02/21 13:40:05;;;;;;;;;7.00;7.00;;;;;;;;5065117;28;45407;-78
2024/02/21 13:42:30;;;;;;;;;9.00;9.00;;;;;;;;5065866;28;45287;-78
2024/02/21 13:44:55;;;;;;;;;8.33;7.00;;;;;;;;5068856;28;45403;-78
2024/02/21 13:47:21;;;;;;;;;6.67;6.67;;;;;;;;5071636;28;45498;-78
2024/02/21 13:49:46;;;;;;;;;8.00;8.00;;;;;;;;5068937;28;45252;-76
2024/02/21 13:52:11;;;;;;;;;10.00;8.67;;;;;;;;5067386;28;45598;-78
2024/02/21 13:54:36;;;;;;;;;9.67;9.00;;;;;;;;5068907;28;47420;-79
2024/02/21 13:57:02;;;;;;;;;8.67;8.67;;;;;;;;5067757;28;46780;-78
2024/02/21 13:59:29;;;;;;;;;10.00;10.00;;;;;;;;5064951;28;45321;-78
2024/02/21 14:01:55;;;;;;;;;10.33;10.00;;;;;;;;5063171;28;45270;-79
2024/02/21 14:04:20;;;;;;;;;10.33;9.67;;;;;;;;5064892;28;45472;-76
2024/02/21 14:06:45;;;;;;;;;9.00;8.67;;;;;;;;5060683;28;45365;-78
2024/02/21 14:09:10;;;;;;;;;13.33;12.33;;;;;;;;5059981;28;45694;-78
2024/02/21 14:11:37;;;;;;;;;8.33;8.33;;;;;;;;5063527;28;45335;-77
2024/02/21 14:14:02;;;;;;;;;5.00;4.00;;;;;;;;5059913;28;46290;-79